MHLC/LCE METAR and TAF weather

Enter ICAO airport designator
Station Type Date Time Source
MHLC METAR 2021/10/20 06:00 UTC NOAA

MHLC 200600Z 06003KT 9999 FEW026 BKN080 24/24 Q1013 A2992 NOSIG


Station Type Date Time Source
MHLC Decoded METAR 2021/10/20 06:00 UTC NOAA

La Ceiba Airport , Honduras (MHLC) 15-44N 086-52W 26M
Oct 20, 2021 - 02:00 AM EDT / 2021.10.20 0600 UTC
Wind: from the ENE (060 degrees) at 3 MPH (3 KT):0
Visibility: greater than 7 mile(s):0
Sky conditions: mostly cloudy
Temperature: 75 F (24 C)
Dew Point: 75 F (24 C)
Relative Humidity: 100%
Pressure (altimeter): 29.92 in. Hg (1013 hPa)
ob: MHLC 200600Z 06003KT 9999 FEW026 BKN080 24/24 Q1013 A2992 NOSIG
cycle: 6

Station Type Date Time Source
MHLC TAF 2021/10/20 06:13 UTC NOAA

TAF MHLC 200500Z 2006/2106 VRB03KT 9999 SCT024 TX31/2019Z TN23/2012Z
BECMG 2015/2017 03008KT SCT030TCU FEW035CB
BECMG 2021/2023 7000 TSVCSH
BECMG 2103/2105 VRB04KT 9999 NSW FEW026

Example: see airport list